sensor_id;sensor_type;location;lat;lon;timestamp;temperature;humidity
18541;DHT22;9400;50.924;5.328;2023-02-04T00:00:20;9.10;99.90
18541;DHT22;9400;50.924;5.328;2023-02-04T00:02:51;9.10;99.90
18541;DHT22;9400;50.924;5.328;2023-02-04T00:05:21;9.10;99.90
18541;DHT22;9400;50.924;5.328;2023-02-04T00:07:48;9.10;99.90
18541;DHT22;9400;50.924;5.328;2023-02-04T00:10:16;9.00;99.90
18541;DHT22;9400;50.924;5.328;2023-02-04T00:12:43;9.10;99.90
18541;DHT22;9400;50.924;5.328;2023-02-04T00:15:11;9.10;99.90
18541;DHT22;9400;50.924;5.328;2023-02-04T00:17:39;9.10;99.90
18541;DHT22;9400;50.924;5.328;2023-02-04T00:20:09;9.00;99.90
18541;DHT22;9400;50.924;5.328;2023-02-04T00:22:38;8.90;99.90
18541;DHT22;9400;50.924;5.328;2023-02-04T00:25:06;8.90;99.90
18541;DHT22;9400;50.924;5.328;2023-02-04T00:27:34;8.80;99.90
18541;DHT22;9400;50.924;5.328;2023-02-04T00:30:03;8.80;99.90
18541;DHT22;9400;50.924;5.328;2023-02-04T00:32:31;8.80;99.90
18541;DHT22;9400;50.924;5.328;2023-02-04T00:34:59;8.90;99.90
18541;DHT22;9400;50.924;5.328;2023-02-04T00:37:29;8.90;99.90
18541;DHT22;9400;50.924;5.328;2023-02-04T00:39:58;8.90;99.90
18541;DHT22;9400;50.924;5.328;2023-02-04T00:42:26;8.80;99.90
18541;DHT22;9400;50.924;5.328;2023-02-04T00:44:53;8.80;99.90
18541;DHT22;9400;50.924;5.328;2023-02-04T00:47:21;8.80;99.90
18541;DHT22;9400;50.924;5.328;2023-02-04T00:49:48;8.80;99.90
18541;DHT22;9400;50.924;5.328;2023-02-04T00:52:16;8.80;99.90
18541;DHT22;9400;50.924;5.328;2023-02-04T00:54:43;8.90;99.90
18541;DHT22;9400;50.924;5.328;2023-02-04T00:57:13;8.80;99.90
18541;DHT22;9400;50.924;5.328;2023-02-04T00:59:40;8.90;99.90
18541;DHT22;9400;50.924;5.328;2023-02-04T01:02:08;8.80;99.90
18541;DHT22;9400;50.924;5.328;2023-02-04T01:04:35;8.80;99.90
18541;DHT22;9400;50.924;5.328;2023-02-04T01:07:03;8.70;99.90
18541;DHT22;9400;50.924;5.328;2023-02-04T01:09:30;8.70;99.90
18541;DHT22;9400;50.924;5.328;2023-02-04T01:11:58;8.80;99.90
18541;DHT22;9400;50.924;5.328;2023-02-04T01:14:27;8.70;99.90
18541;DHT22;9400;50.924;5.328;2023-02-04T01:16:55;8.70;99.90
18541;DHT22;9400;50.924;5.328;2023-02-04T01:19:23;8.70;99.90
18541;DHT22;9400;50.924;5.328;2023-02-04T01:21:50;8.70;99.90
18541;DHT22;9400;50.924;5.328;2023-02-04T01:24:17;8.70;99.90
18541;DHT22;9400;50.924;5.328;2023-02-04T01:26:45;8.70;99.90
18541;DHT22;9400;50.924;5.328;2023-02-04T01:29:12;8.60;99.90
18541;DHT22;9400;50.924;5.328;2023-02-04T01:31:42;8.60;99.90
18541;DHT22;9400;50.924;5.328;2023-02-04T01:34:11;8.60;99.90
18541;DHT22;9400;50.924;5.328;2023-02-04T01:36:38;8.60;99.90
18541;DHT22;9400;50.924;5.328;2023-02-04T01:39:06;8.60;99.90
18541;DHT22;9400;50.924;5.328;2023-02-04T01:41:34;8.60;99.90
18541;DHT22;9400;50.924;5.328;2023-02-04T01:44:02;8.60;99.90
18541;DHT22;9400;50.924;5.328;2023-02-04T01:46:29;8.60;99.90
18541;DHT22;9400;50.924;5.328;2023-02-04T01:49:00;8.60;99.90
18541;DHT22;9400;50.924;5.328;2023-02-04T01:51:28;8.50;99.90
18541;DHT22;9400;50.924;5.328;2023-02-04T01:53:58;8.60;99.90
18541;DHT22;9400;50.924;5.328;2023-02-04T01:56:29;8.60;99.90
18541;DHT22;9400;50.924;5.328;2023-02-04T01:58:57;8.70;99.90
18541;DHT22;9400;50.924;5.328;2023-02-04T02:01:36;8.60;99.90
18541;DHT22;9400;50.924;5.328;2023-02-04T02:04:09;8.60;99.90
18541;DHT22;9400;50.924;5.328;2023-02-04T02:06:38;8.60;99.90
18541;DHT22;9400;50.924;5.328;2023-02-04T02:09:06;8.70;99.90
18541;DHT22;9400;50.924;5.328;2023-02-04T02:11:34;8.70;99.90
18541;DHT22;9400;50.924;5.328;2023-02-04T02:14:02;8.70;99.90
18541;DHT22;9400;50.924;5.328;2023-02-04T02:16:33;8.70;99.90
18541;DHT22;9400;50.924;5.328;2023-02-04T02:19:01;8.70;99.90
18541;DHT22;9400;50.924;5.328;2023-02-04T02:21:34;8.60;99.90
18541;DHT22;9400;50.924;5.328;2023-02-04T02:24:25;8.60;99.90
18541;DHT22;9400;50.924;5.328;2023-02-04T02:26:54;8.60;99.90
18541;DHT22;9400;50.924;5.328;2023-02-04T02:29:22;8.50;99.90
18541;DHT22;9400;50.924;5.328;2023-02-04T02:31:50;8.30;99.90
18541;DHT22;9400;50.924;5.328;2023-02-04T02:34:18;8.30;99.90
18541;DHT22;9400;50.924;5.328;2023-02-04T02:36:46;8.30;99.90
18541;DHT22;9400;50.924;5.328;2023-02-04T02:39:15;8.40;99.90
18541;DHT22;9400;50.924;5.328;2023-02-04T02:41:46;8.30;99.90
18541;DHT22;9400;50.924;5.328;2023-02-04T02:44:15;8.20;99.90
18541;DHT22;9400;50.924;5.328;2023-02-04T02:46:45;8.20;99.90
18541;DHT22;9400;50.924;5.328;2023-02-04T02:49:14;8.20;99.90
18541;DHT22;9400;50.924;5.328;2023-02-04T02:51:42;8.20;99.90
18541;DHT22;9400;50.924;5.328;2023-02-04T02:54:21;8.20;99.90
18541;DHT22;9400;50.924;5.328;2023-02-04T02:56:49;8.20;99.90
18541;DHT22;9400;50.924;5.328;2023-02-04T02:59:18;8.20;99.90
18541;DHT22;9400;50.924;5.328;2023-02-04T03:01:47;8.20;99.90
18541;DHT22;9400;50.924;5.328;2023-02-04T03:04:16;8.30;99.90
18541;DHT22;9400;50.924;5.328;2023-02-04T03:06:45;8.30;99.90
18541;DHT22;9400;50.924;5.328;2023-02-04T03:09:14;8.40;99.90
18541;DHT22;9400;50.924;5.328;2023-02-04T03:11:42;8.40;99.90
18541;DHT22;9400;50.924;5.328;2023-02-04T03:14:09;8.40;99.90
18541;DHT22;9400;50.924;5.328;2023-02-04T03:16:38;8.50;99.90
18541;DHT22;9400;50.924;5.328;2023-02-04T03:19:07;8.50;99.90
18541;DHT22;9400;50.924;5.328;2023-02-04T03:21:35;8.60;99.90
18541;DHT22;9400;50.924;5.328;2023-02-04T03:24:03;8.60;99.90
18541;DHT22;9400;50.924;5.328;2023-02-04T03:26:33;8.60;99.90
18541;DHT22;9400;50.924;5.328;2023-02-04T03:29:00;8.60;99.90
18541;DHT22;9400;50.924;5.328;2023-02-04T03:31:28;8.60;99.90
18541;DHT22;9400;50.924;5.328;2023-02-04T03:33:55;8.60;99.90
18541;DHT22;9400;50.924;5.328;2023-02-04T03:36:23;8.50;99.90
18541;DHT22;9400;50.924;5.328;2023-02-04T03:38:50;8.40;99.90
18541;DHT22;9400;50.924;5.328;2023-02-04T03:41:19;8.50;99.90
18541;DHT22;9400;50.924;5.328;2023-02-04T03:43:48;8.40;99.90
18541;DHT22;9400;50.924;5.328;2023-02-04T03:46:16;8.40;99.90
18541;DHT22;9400;50.924;5.328;2023-02-04T03:48:43;8.40;99.90
18541;DHT22;9400;50.924;5.328;2023-02-04T03:51:11;8.40;99.90
18541;DHT22;9400;50.924;5.328;2023-02-04T03:53:38;8.30;99.90
18541;DHT22;9400;50.924;5.328;2023-02-04T03:56:09;8.30;99.90
18541;DHT22;9400;50.924;5.328;2023-02-04T03:58:36;8.30;99.90
18541;DHT22;9400;50.924;5.328;2023-02-04T04:01:05;8.40;99.90
18541;DHT22;9400;50.924;5.328;2023-02-04T04:03:33;8.30;99.90
18541;DHT22;9400;50.924;5.328;2023-02-04T04:06:00;8.20;99.90
18541;DHT22;9400;50.924;5.328;2023-02-04T04:08:31;8.20;99.90
18541;DHT22;9400;50.924;5.328;2023-02-04T04:10:59;8.20;99.90
18541;DHT22;9400;50.924;5.328;2023-02-04T04:13:27;8.30;99.90
18541;DHT22;9400;50.924;5.328;2023-02-04T04:15:54;8.30;99.90
18541;DHT22;9400;50.924;5.328;2023-02-04T04:18:23;8.40;99.90
18541;DHT22;9400;50.924;5.328;2023-02-04T04:20:51;8.30;99.90
18541;DHT22;9400;50.924;5.328;2023-02-04T04:23:19;8.30;99.90
18541;DHT22;9400;50.924;5.328;2023-02-04T04:25:47;8.20;99.90
18541;DHT22;9400;50.924;5.328;2023-02-04T04:28:15;8.20;99.90
18541;DHT22;9400;50.924;5.328;2023-02-04T04:30:42;8.30;99.90
18541;DHT22;9400;50.924;5.328;2023-02-04T04:33:10;8.20;99.90
18541;DHT22;9400;50.924;5.328;2023-02-04T04:35:39;8.20;99.90
18541;DHT22;9400;50.924;5.328;2023-02-04T04:38:07;8.20;99.90
18541;DHT22;9400;50.924;5.328;2023-02-04T04:40:34;8.20;99.90
18541;DHT22;9400;50.924;5.328;2023-02-04T04:43:02;8.10;99.90
18541;DHT22;9400;50.924;5.328;2023-02-04T04:45:29;8.00;99.90
18541;DHT22;9400;50.924;5.328;2023-02-04T04:47:57;8.00;99.90
18541;DHT22;9400;50.924;5.328;2023-02-04T04:50:25;7.90;99.90
18541;DHT22;9400;50.924;5.328;2023-02-04T04:52:54;7.90;99.90
18541;DHT22;9400;50.924;5.328;2023-02-04T04:55:25;7.90;99.90
18541;DHT22;9400;50.924;5.328;2023-02-04T04:57:52;7.80;99.90
18541;DHT22;9400;50.924;5.328;2023-02-04T05:00:24;7.80;99.90
18541;DHT22;9400;50.924;5.328;2023-02-04T05:02:51;7.90;99.90
18541;DHT22;9400;50.924;5.328;2023-02-04T05:05:19;7.90;99.90
18541;DHT22;9400;50.924;5.328;2023-02-04T05:07:46;8.00;99.90
18541;DHT22;9400;50.924;5.328;2023-02-04T05:10:16;8.00;99.90
18541;DHT22;9400;50.924;5.328;2023-02-04T05:12:44;8.00;99.90
18541;DHT22;9400;50.924;5.328;2023-02-04T05:15:11;7.90;99.90
18541;DHT22;9400;50.924;5.328;2023-02-04T05:17:39;7.90;99.90
18541;DHT22;9400;50.924;5.328;2023-02-04T05:20:08;7.90;99.90
18541;DHT22;9400;50.924;5.328;2023-02-04T05:22:36;7.90;99.90
18541;DHT22;9400;50.924;5.328;2023-02-04T05:25:03;7.80;99.90
18541;DHT22;9400;50.924;5.328;2023-02-04T05:27:32;8.00;99.90
18541;DHT22;9400;50.924;5.328;2023-02-04T05:30:00;8.10;99.90
18541;DHT22;9400;50.924;5.328;2023-02-04T05:32:27;7.90;99.90
18541;DHT22;9400;50.924;5.328;2023-02-04T05:34:55;8.00;99.90
18541;DHT22;9400;50.924;5.328;2023-02-04T05:37:22;8.00;99.90
18541;DHT22;9400;50.924;5.328;2023-02-04T05:39:50;8.00;99.90
18541;DHT22;9400;50.924;5.328;2023-02-04T05:42:18;8.10;99.90
18541;DHT22;9400;50.924;5.328;2023-02-04T05:44:47;8.00;99.90
18541;DHT22;9400;50.924;5.328;2023-02-04T05:47:15;8.00;99.90
18541;DHT22;9400;50.924;5.328;2023-02-04T05:49:43;8.10;99.90
18541;DHT22;9400;50.924;5.328;2023-02-04T05:52:11;8.00;99.90
18541;DHT22;9400;50.924;5.328;2023-02-04T05:54:40;8.00;99.90
18541;DHT22;9400;50.924;5.328;2023-02-04T05:57:07;8.00;99.90
18541;DHT22;9400;50.924;5.328;2023-02-04T05:59:35;8.00;99.90
18541;DHT22;9400;50.924;5.328;2023-02-04T06:02:04;8.10;99.90
18541;DHT22;9400;50.924;5.328;2023-02-04T06:04:32;8.10;99.90
18541;DHT22;9400;50.924;5.328;2023-02-04T06:06:59;8.10;99.90
18541;DHT22;9400;50.924;5.328;2023-02-04T06:09:28;8.10;99.90
18541;DHT22;9400;50.924;5.328;2023-02-04T06:11:56;8.10;99.90
18541;DHT22;9400;50.924;5.328;2023-02-04T06:14:23;8.10;99.90
18541;DHT22;9400;50.924;5.328;2023-02-04T06:16:51;8.10;99.90
18541;DHT22;9400;50.924;5.328;2023-02-04T06:19:20;8.10;99.90
18541;DHT22;9400;50.924;5.328;2023-02-04T06:21:48;8.10;99.90
18541;DHT22;9400;50.924;5.328;2023-02-04T06:24:15;8.20;99.90
18541;DHT22;9400;50.924;5.328;2023-02-04T06:26:43;8.00;99.90
18541;DHT22;9400;50.924;5.328;2023-02-04T06:29:10;8.00;99.90
18541;DHT22;9400;50.924;5.328;2023-02-04T06:31:37;8.10;99.90
18541;DHT22;9400;50.924;5.328;2023-02-04T06:34:05;8.20;99.90
18541;DHT22;9400;50.924;5.328;2023-02-04T06:36:34;8.20;99.90
18541;DHT22;9400;50.924;5.328;2023-02-04T06:39:01;8.20;99.90
18541;DHT22;9400;50.924;5.328;2023-02-04T06:41:29;8.20;99.90
18541;DHT22;9400;50.924;5.328;2023-02-04T06:43:56;8.00;99.90
18541;DHT22;9400;50.924;5.328;2023-02-04T06:46:24;8.00;99.90
18541;DHT22;9400;50.924;5.328;2023-02-04T06:48:51;8.00;99.90
18541;DHT22;9400;50.924;5.328;2023-02-04T06:51:19;8.10;99.90
18541;DHT22;9400;50.924;5.328;2023-02-04T06:53:48;8.20;99.90
18541;DHT22;9400;50.924;5.328;2023-02-04T06:56:15;8.20;99.90
18541;DHT22;9400;50.924;5.328;2023-02-04T06:58:43;8.20;99.90
18541;DHT22;9400;50.924;5.328;2023-02-04T07:01:10;8.10;99.90
18541;DHT22;9400;50.924;5.328;2023-02-04T07:03:37;8.10;99.90
18541;DHT22;9400;50.924;5.328;2023-02-04T07:06:05;8.00;99.90
18541;DHT22;9400;50.924;5.328;2023-02-04T07:08:33;8.10;99.90
18541;DHT22;9400;50.924;5.328;2023-02-04T07:11:01;8.00;99.90
18541;DHT22;9400;50.924;5.328;2023-02-04T07:13:29;8.10;99.90
18541;DHT22;9400;50.924;5.328;2023-02-04T07:15:56;8.10;99.90
18541;DHT22;9400;50.924;5.328;2023-02-04T07:18:24;8.00;99.90
18541;DHT22;9400;50.924;5.328;2023-02-04T07:20:52;8.10;99.90
18541;DHT22;9400;50.924;5.328;2023-02-04T07:23:20;8.10;99.90
18541;DHT22;9400;50.924;5.328;2023-02-04T07:25:49;8.10;99.90
18541;DHT22;9400;50.924;5.328;2023-02-04T07:28:20;8.20;99.90
18541;DHT22;9400;50.924;5.328;2023-02-04T07:30:47;8.20;99.90
18541;DHT22;9400;50.924;5.328;2023-02-04T07:33:16;8.20;99.90
18541;DHT22;9400;50.924;5.328;2023-02-04T07:35:43;8.30;99.90
18541;DHT22;9400;50.924;5.328;2023-02-04T07:38:11;8.40;99.90
18541;DHT22;9400;50.924;5.328;2023-02-04T07:40:38;8.40;99.90
18541;DHT22;9400;50.924;5.328;2023-02-04T07:43:06;8.40;99.90
18541;DHT22;9400;50.924;5.328;2023-02-04T07:45:35;8.30;99.90
18541;DHT22;9400;50.924;5.328;2023-02-04T07:48:04;8.30;99.90
18541;DHT22;9400;50.924;5.328;2023-02-04T07:50:32;8.40;99.90
18541;DHT22;9400;50.924;5.328;2023-02-04T07:53:00;8.40;99.90
18541;DHT22;9400;50.924;5.328;2023-02-04T07:55:28;8.50;99.90
18541;DHT22;9400;50.924;5.328;2023-02-04T07:57:56;8.50;99.90
18541;DHT22;9400;50.924;5.328;2023-02-04T08:00:24;8.50;99.90
18541;DHT22;9400;50.924;5.328;2023-02-04T08:02:53;8.50;99.90
18541;DHT22;9400;50.924;5.328;2023-02-04T08:05:21;8.60;99.90
18541;DHT22;9400;50.924;5.328;2023-02-04T08:07:48;8.60;99.90
18541;DHT22;9400;50.924;5.328;2023-02-04T08:10:16;8.60;99.90
18541;DHT22;9400;50.924;5.328;2023-02-04T08:12:45;8.60;99.90
18541;DHT22;9400;50.924;5.328;2023-02-04T08:15:12;8.70;99.90
18541;DHT22;9400;50.924;5.328;2023-02-04T08:17:39;8.60;99.90
18541;DHT22;9400;50.924;5.328;2023-02-04T08:20:10;8.60;99.90
18541;DHT22;9400;50.924;5.328;2023-02-04T08:22:38;8.60;99.90
18541;DHT22;9400;50.924;5.328;2023-02-04T08:25:05;8.70;99.90
18541;DHT22;9400;50.924;5.328;2023-02-04T08:27:33;8.80;99.90
18541;DHT22;9400;50.924;5.328;2023-02-04T08:30:01;8.80;99.90
18541;DHT22;9400;50.924;5.328;2023-02-04T08:32:28;8.80;99.90
18541;DHT22;9400;50.924;5.328;2023-02-04T08:34:56;8.80;99.90
18541;DHT22;9400;50.924;5.328;2023-02-04T08:37:27;8.80;99.90
18541;DHT22;9400;50.924;5.328;2023-02-04T08:39:57;8.80;99.90
18541;DHT22;9400;50.924;5.328;2023-02-04T08:42:27;8.90;99.90
18541;DHT22;9400;50.924;5.328;2023-02-04T08:44:56;9.00;99.90
18541;DHT22;9400;50.924;5.328;2023-02-04T08:47:30;9.10;99.90
18541;DHT22;9400;50.924;5.328;2023-02-04T08:50:00;9.20;99.90
18541;DHT22;9400;50.924;5.328;2023-02-04T08:52:30;9.20;99.90
18541;DHT22;9400;50.924;5.328;2023-02-04T08:54:58;9.10;99.90
18541;DHT22;9400;50.924;5.328;2023-02-04T08:57:25;9.20;99.90
18541;DHT22;9400;50.924;5.328;2023-02-04T08:59:53;9.30;99.90
18541;DHT22;9400;50.924;5.328;2023-02-04T09:02:20;9.20;99.90
18541;DHT22;9400;50.924;5.328;2023-02-04T09:04:48;9.10;99.90
18541;DHT22;9400;50.924;5.328;2023-02-04T09:07:15;9.10;99.90
18541;DHT22;9400;50.924;5.328;2023-02-04T09:09:45;9.10;99.90
18541;DHT22;9400;50.924;5.328;2023-02-04T09:12:12;9.20;99.90
18541;DHT22;9400;50.924;5.328;2023-02-04T09:14:40;9.20;99.90
18541;DHT22;9400;50.924;5.328;2023-02-04T09:17:08;9.30;99.90
18541;DHT22;9400;50.924;5.328;2023-02-04T09:19:36;9.40;99.90
18541;DHT22;9400;50.924;5.328;2023-02-04T09:22:04;9.40;99.90
18541;DHT22;9400;50.924;5.328;2023-02-04T09:24:32;9.40;99.90
18541;DHT22;9400;50.924;5.328;2023-02-04T09:27:02;9.60;99.90
18541;DHT22;9400;50.924;5.328;2023-02-04T09:29:29;9.70;99.90
18541;DHT22;9400;50.924;5.328;2023-02-04T09:32:00;9.70;99.90
18541;DHT22;9400;50.924;5.328;2023-02-04T09:34:29;9.70;99.90
18541;DHT22;9400;50.924;5.328;2023-02-04T09:36:56;9.60;99.90
18541;DHT22;9400;50.924;5.328;2023-02-04T09:39:24;9.60;99.90
18541;DHT22;9400;50.924;5.328;2023-02-04T09:41:52;9.60;99.90
18541;DHT22;9400;50.924;5.328;2023-02-04T09:44:24;9.80;99.90
18541;DHT22;9400;50.924;5.328;2023-02-04T09:46:54;9.90;99.90
18541;DHT22;9400;50.924;5.328;2023-02-04T09:49:23;9.70;99.90
18541;DHT22;9400;50.924;5.328;2023-02-04T09:51:51;9.70;99.90
18541;DHT22;9400;50.924;5.328;2023-02-04T09:54:20;9.90;99.90
18541;DHT22;9400;50.924;5.328;2023-02-04T09:56:48;9.80;99.90
18541;DHT22;9400;50.924;5.328;2023-02-04T09:59:18;9.90;99.90
18541;DHT22;9400;50.924;5.328;2023-02-04T10:01:51;9.80;99.90
18541;DHT22;9400;50.924;5.328;2023-02-04T10:04:21;9.80;99.90
18541;DHT22;9400;50.924;5.328;2023-02-04T10:06:51;10.00;99.90
18541;DHT22;9400;50.924;5.328;2023-02-04T10:09:19;10.10;99.90
18541;DHT22;9400;50.924;5.328;2023-02-04T10:11:48;10.00;99.90
18541;DHT22;9400;50.924;5.328;2023-02-04T10:14:19;10.10;99.90
18541;DHT22;9400;50.924;5.328;2023-02-04T10:16:52;10.00;99.90
18541;DHT22;9400;50.924;5.328;2023-02-04T10:19:22;10.20;99.90
18541;DHT22;9400;50.924;5.328;2023-02-04T10:21:50;10.20;99.90
18541;DHT22;9400;50.924;5.328;2023-02-04T10:24:21;10.10;99.90
18541;DHT22;9400;50.924;5.328;2023-02-04T10:26:51;10.00;99.90
18541;DHT22;9400;50.924;5.328;2023-02-04T10:29:21;10.10;99.90
18541;DHT22;9400;50.924;5.328;2023-02-04T10:31:52;10.10;99.90
18541;DHT22;9400;50.924;5.328;2023-02-04T10:34:21;10.30;99.90
18541;DHT22;9400;50.924;5.328;2023-02-04T10:36:50;10.30;99.90
18541;DHT22;9400;50.924;5.328;2023-02-04T10:39:19;10.00;99.90
18541;DHT22;9400;50.924;5.328;2023-02-04T10:41:49;10.00;99.90
18541;DHT22;9400;50.924;5.328;2023-02-04T10:44:19;10.20;99.90
18541;DHT22;9400;50.924;5.328;2023-02-04T10:46:48;10.10;99.90
18541;DHT22;9400;50.924;5.328;2023-02-04T10:49:22;10.00;99.90
18541;DHT22;9400;50.924;5.328;2023-02-04T10:51:51;10.20;99.90
18541;DHT22;9400;50.924;5.328;2023-02-04T10:54:21;10.30;99.90
18541;DHT22;9400;50.924;5.328;2023-02-04T10:57:02;10.10;99.90
18541;DHT22;9400;50.924;5.328;2023-02-04T10:59:31;10.10;99.90
18541;DHT22;9400;50.924;5.328;2023-02-04T11:02:00;10.20;99.90
18541;DHT22;9400;50.924;5.328;2023-02-04T11:04:30;10.20;99.90
18541;DHT22;9400;50.924;5.328;2023-02-04T11:06:58;9.90;99.90
18541;DHT22;9400;50.924;5.328;2023-02-04T11:09:26;10.00;99.90
18541;DHT22;9400;50.924;5.328;2023-02-04T11:11:57;10.10;99.90
18541;DHT22;9400;50.924;5.328;2023-02-04T11:14:27;10.20;99.90
18541;DHT22;9400;50.924;5.328;2023-02-04T11:16:56;10.10;99.90
18541;DHT22;9400;50.924;5.328;2023-02-04T11:19:37;10.10;99.90
18541;DHT22;9400;50.924;5.328;2023-02-04T11:22:07;10.30;99.90
18541;DHT22;9400;50.924;5.328;2023-02-04T11:24:46;10.30;99.90
18541;DHT22;9400;50.924;5.328;2023-02-04T11:27:21;10.40;99.90
18541;DHT22;9400;50.924;5.328;2023-02-04T11:29:49;10.50;99.90
18541;DHT22;9400;50.924;5.328;2023-02-04T11:32:31;10.50;99.90
18541;DHT22;9400;50.924;5.328;2023-02-04T11:35:22;10.60;99.90
18541;DHT22;9400;50.924;5.328;2023-02-04T11:37:49;10.60;99.90
18541;DHT22;9400;50.924;5.328;2023-02-04T11:40:24;10.80;99.90
18541;DHT22;9400;50.924;5.328;2023-02-04T11:42:57;10.70;99.90
18541;DHT22;9400;50.924;5.328;2023-02-04T11:45:28;10.50;99.90
18541;DHT22;9400;50.924;5.328;2023-02-04T11:47:58;10.40;99.90
18541;DHT22;9400;50.924;5.328;2023-02-04T11:50:33;10.40;99.90
18541;DHT22;9400;50.924;5.328;2023-02-04T11:53:08;10.90;99.90
18541;DHT22;9400;50.924;5.328;2023-02-04T11:55:42;11.20;99.90
18541;DHT22;9400;50.924;5.328;2023-02-04T11:58:13;10.90;99.90
18541;DHT22;9400;50.924;5.328;2023-02-04T12:00:41;11.00;99.90
18541;DHT22;9400;50.924;5.328;2023-02-04T12:03:25;11.10;99.90
18541;DHT22;9400;50.924;5.328;2023-02-04T12:05:56;11.00;99.90
18541;DHT22;9400;50.924;5.328;2023-02-04T12:08:29;10.60;99.90
18541;DHT22;9400;50.924;5.328;2023-02-04T12:11:03;10.50;99.90
18541;DHT22;9400;50.924;5.328;2023-02-04T12:13:33;10.70;99.90
18541;DHT22;9400;50.924;5.328;2023-02-04T12:16:05;10.60;99.90
18541;DHT22;9400;50.924;5.328;2023-02-04T12:18:33;10.50;99.90
18541;DHT22;9400;50.924;5.328;2023-02-04T12:21:02;10.60;99.90
18541;DHT22;9400;50.924;5.328;2023-02-04T12:23:30;10.60;99.90
18541;DHT22;9400;50.924;5.328;2023-02-04T12:25:58;10.50;99.90
18541;DHT22;9400;50.924;5.328;2023-02-04T12:28:26;10.60;99.90
18541;DHT22;9400;50.924;5.328;2023-02-04T12:30:54;10.50;99.90
18541;DHT22;9400;50.924;5.328;2023-02-04T12:33:21;10.50;99.90
18541;DHT22;9400;50.924;5.328;2023-02-04T12:35:49;10.60;99.90
18541;DHT22;9400;50.924;5.328;2023-02-04T12:38:18;10.80;99.90
18541;DHT22;9400;50.924;5.328;2023-02-04T12:40:49;11.00;99.90
18541;DHT22;9400;50.924;5.328;2023-02-04T12:43:17;11.10;99.90
18541;DHT22;9400;50.924;5.328;2023-02-04T12:45:45;10.90;99.90
18541;DHT22;9400;50.924;5.328;2023-02-04T12:48:14;10.90;99.90
18541;DHT22;9400;50.924;5.328;2023-02-04T12:50:42;11.00;99.90
18541;DHT22;9400;50.924;5.328;2023-02-04T12:53:10;11.00;99.90
18541;DHT22;9400;50.924;5.328;2023-02-04T12:55:39;11.10;99.90
18541;DHT22;9400;50.924;5.328;2023-02-04T12:58:07;11.10;99.90
18541;DHT22;9400;50.924;5.328;2023-02-04T13:00:35;11.00;99.90
18541;DHT22;9400;50.924;5.328;2023-02-04T13:03:03;10.80;99.90
18541;DHT22;9400;50.924;5.328;2023-02-04T13:05:31;10.80;99.90
18541;DHT22;9400;50.924;5.328;2023-02-04T13:08:00;10.90;99.90
18541;DHT22;9400;50.924;5.328;2023-02-04T13:10:28;10.90;99.90
18541;DHT22;9400;50.924;5.328;2023-02-04T13:12:58;10.90;99.90
18541;DHT22;9400;50.924;5.328;2023-02-04T13:15:28;10.80;99.90
18541;DHT22;9400;50.924;5.328;2023-02-04T13:17:56;10.90;99.90
18541;DHT22;9400;50.924;5.328;2023-02-04T13:20:23;10.60;99.90
18541;DHT22;9400;50.924;5.328;2023-02-04T13:22:51;10.70;99.90
18541;DHT22;9400;50.924;5.328;2023-02-04T13:25:21;10.60;99.90
18541;DHT22;9400;50.924;5.328;2023-02-04T13:27:49;10.70;99.90
18541;DHT22;9400;50.924;5.328;2023-02-04T13:30:18;10.60;99.90
18541;DHT22;9400;50.924;5.328;2023-02-04T13:32:46;10.50;99.90
18541;DHT22;9400;50.924;5.328;2023-02-04T13:35:13;10.50;99.90
18541;DHT22;9400;50.924;5.328;2023-02-04T13:37:41;10.60;99.90
18541;DHT22;9400;50.924;5.328;2023-02-04T13:40:10;10.60;99.90
18541;DHT22;9400;50.924;5.328;2023-02-04T13:42:38;10.70;99.90
18541;DHT22;9400;50.924;5.328;2023-02-04T13:45:08;10.70;99.90
18541;DHT22;9400;50.924;5.328;2023-02-04T13:47:39;10.80;99.90
18541;DHT22;9400;50.924;5.328;2023-02-04T13:50:07;10.90;99.90
18541;DHT22;9400;50.924;5.328;2023-02-04T13:52:34;11.00;99.90
18541;DHT22;9400;50.924;5.328;2023-02-04T13:55:02;10.80;99.90
18541;DHT22;9400;50.924;5.328;2023-02-04T13:57:30;10.70;99.90
18541;DHT22;9400;50.924;5.328;2023-02-04T13:59:58;10.80;99.90
18541;DHT22;9400;50.924;5.328;2023-02-04T14:02:26;10.80;99.90
18541;DHT22;9400;50.924;5.328;2023-02-04T14:04:54;10.90;99.90
18541;DHT22;9400;50.924;5.328;2023-02-04T14:07:23;10.80;99.90
18541;DHT22;9400;50.924;5.328;2023-02-04T14:09:51;10.80;99.90
18541;DHT22;9400;50.924;5.328;2023-02-04T14:12:18;10.60;99.90
18541;DHT22;9400;50.924;5.328;2023-02-04T14:14:46;10.60;99.90
18541;DHT22;9400;50.924;5.328;2023-02-04T14:17:14;10.60;99.90
18541;DHT22;9400;50.924;5.328;2023-02-04T14:19:42;10.50;99.90
18541;DHT22;9400;50.924;5.328;2023-02-04T14:22:11;10.40;99.90
18541;DHT22;9400;50.924;5.328;2023-02-04T14:24:39;10.30;99.90
18541;DHT22;9400;50.924;5.328;2023-02-04T14:27:08;10.40;99.90
18541;DHT22;9400;50.924;5.328;2023-02-04T14:29:35;10.50;99.90
18541;DHT22;9400;50.924;5.328;2023-02-04T14:32:04;10.50;99.90
18541;DHT22;9400;50.924;5.328;2023-02-04T14:34:31;10.50;99.90
18541;DHT22;9400;50.924;5.328;2023-02-04T14:36:58;10.40;99.90
18541;DHT22;9400;50.924;5.328;2023-02-04T14:39:27;10.30;99.90
18541;DHT22;9400;50.924;5.328;2023-02-04T14:41:55;10.20;99.90
18541;DHT22;9400;50.924;5.328;2023-02-04T14:44:22;10.30;99.90
18541;DHT22;9400;50.924;5.328;2023-02-04T14:46:51;10.20;99.90
18541;DHT22;9400;50.924;5.328;2023-02-04T14:49:18;10.30;99.90
18541;DHT22;9400;50.924;5.328;2023-02-04T14:51:46;10.30;99.90
18541;DHT22;9400;50.924;5.328;2023-02-04T14:54:14;10.30;99.90
18541;DHT22;9400;50.924;5.328;2023-02-04T14:56:43;10.30;99.90
18541;DHT22;9400;50.924;5.328;2023-02-04T14:59:12;10.30;99.90
18541;DHT22;9400;50.924;5.328;2023-02-04T15:01:43;10.30;99.90
18541;DHT22;9400;50.924;5.328;2023-02-04T15:04:11;10.30;99.90
18541;DHT22;9400;50.924;5.328;2023-02-04T15:06:39;10.30;99.90
18541;DHT22;9400;50.924;5.328;2023-02-04T15:09:07;10.20;99.90
18541;DHT22;9400;50.924;5.328;2023-02-04T15:11:35;10.20;99.90
18541;DHT22;9400;50.924;5.328;2023-02-04T15:14:04;10.20;99.90
18541;DHT22;9400;50.924;5.328;2023-02-04T15:16:31;10.20;99.90
18541;DHT22;9400;50.924;5.328;2023-02-04T15:18:59;10.00;99.90
18541;DHT22;9400;50.924;5.328;2023-02-04T15:21:27;10.00;99.90
18541;DHT22;9400;50.924;5.328;2023-02-04T15:23:54;9.90;99.90
18541;DHT22;9400;50.924;5.328;2023-02-04T15:26:22;9.90;99.90
18541;DHT22;9400;50.924;5.328;2023-02-04T15:28:50;10.00;99.90
18541;DHT22;9400;50.924;5.328;2023-02-04T15:31:19;10.00;99.90
18541;DHT22;9400;50.924;5.328;2023-02-04T15:33:46;10.10;99.90
18541;DHT22;9400;50.924;5.328;2023-02-04T15:36:13;10.10;99.90
18541;DHT22;9400;50.924;5.328;2023-02-04T15:38:42;10.10;99.90
18541;DHT22;9400;50.924;5.328;2023-02-04T15:41:09;10.00;99.90
18541;DHT22;9400;50.924;5.328;2023-02-04T15:43:37;9.90;99.90
18541;DHT22;9400;50.924;5.328;2023-02-04T15:46:05;9.90;99.90
18541;DHT22;9400;50.924;5.328;2023-02-04T15:48:34;9.80;99.90
18541;DHT22;9400;50.924;5.328;2023-02-04T15:51:02;9.70;99.90
18541;DHT22;9400;50.924;5.328;2023-02-04T15:53:30;9.70;99.90
18541;DHT22;9400;50.924;5.328;2023-02-04T15:56:00;9.70;99.90
18541;DHT22;9400;50.924;5.328;2023-02-04T15:58:28;9.70;99.90
18541;DHT22;9400;50.924;5.328;2023-02-04T16:00:56;9.70;99.90
18541;DHT22;9400;50.924;5.328;2023-02-04T16:03:24;9.80;99.90
18541;DHT22;9400;50.924;5.328;2023-02-04T16:05:53;9.80;99.90